Time;durP1;ratioP1;P1;durP2;ratioP2;P2;SDS_P1;SDS_P2;PMS_P1;PMS_P2;Temp;Humidity;BMP_temperature;BMP_pressure;BME280_temperature;BME280_humidity;BME280_pressure;Samples;Min_cycle;Max_cycle;Signal;HPM_P1;HPM_P2
2022/11/17 00:00:23;;;;;;;;;;;;;;;;;;8452840;27;27389;-77
2022/11/17 00:04:29;;;;;;;;;;;;;;;;;;8455631;27;28632;-78
2022/11/17 00:08:29;;;;;;;;;;;;;;;;;;8446620;27;27902;-76
2022/11/17 00:16:48;;;;;;;;;;;;;;;;;;8443558;27;27685;-77
2022/11/17 00:25:07;;;;;;;;;;;;;;;;;;8445609;27;27387;-77
2022/11/17 00:29:07;;;;;;;;;;;;;;;;;;8452085;27;28360;-76
2022/11/17 00:37:26;;;;;;;;;;;;;;;;;;8452671;27;27246;-77
2022/11/17 00:41:27;;;;;;;;;;;;;;;;;;8449399;27;27345;-77
2022/11/17 00:45:27;;;;;;;;;;;;;;;;;;8454428;27;27533;-79
2022/11/17 00:49:27;;;;;;;;;;;;;;;;;;8455644;27;27601;-79
2022/11/17 00:53:27;;;;;;;;;;;;;;;;;;8451694;27;27305;-78
2022/11/17 00:57:27;;;;;;;;;;;;;;;;;;8451598;27;27582;-77
2022/11/17 01:01:28;;;;;;;;;;;;;;;;;;8457370;27;27405;-78
2022/11/17 01:05:28;;;;;;;;;;;;;;;;;;8451844;27;27483;-80
2022/11/17 01:09:29;;;;;;;;;;;;;;;;;;8460294;27;28515;-77
2022/11/17 01:13:29;;;;;;;;;;;;;;;;;;8456788;27;27315;-78
2022/11/17 01:17:29;;;;;;;;;;;;;;;;;;8453165;27;27667;-79
2022/11/17 01:21:29;;;;;;;;;;;;;;;;;;8452613;27;27466;-75
2022/11/17 01:25:29;;;;;;;;;;;;;;;;;;8450242;27;27348;-78
2022/11/17 01:29:29;;;;;;;;;;;;;;;;;;8453062;27;27966;-77
2022/11/17 01:33:29;;;;;;;;;;;;;;;;;;8457840;27;27407;-77
2022/11/17 01:37:29;;;;;;;;;;;;;;;;;;8450073;27;28789;-77
2022/11/17 01:41:29;;;;;;;;;;;;;;;;;;8453078;27;27309;-77
2022/11/17 01:45:29;;;;;;;;;;;;;;;;;;8453738;27;28403;-76
2022/11/17 01:49:29;;;;;;;;;;;;;;;;;;8461589;27;28767;-74
2022/11/17 01:53:32;;;;;;;;;;;;;;;;;;8452436;27;27827;-77
2022/11/17 01:57:32;;;;;;;;;;;;;;;;;;8445633;27;27539;-78
2022/11/17 02:01:32;;;;;;;;;;;;;;;;;;8446747;27;28130;-78
2022/11/17 02:05:32;;;;;;;;;;;;;;;;;;8450716;27;27202;-77
2022/11/17 02:09:32;;;;;;;;;;;;;;;;;;8458843;27;27122;-77
2022/11/17 02:13:32;;;;;;;;;;;;;;;;;;8463421;27;27226;-77
2022/11/17 02:17:32;;;;;;;;;;;;;;;;;;8458889;27;27872;-78
2022/11/17 02:21:33;;;;;;;;;;;;;;;;;;8455584;27;27275;-79
2022/11/17 02:25:33;;;;;;;;;;;;;;;;;;8458276;27;27218;-79
2022/11/17 02:29:33;;;;;;;;;;;;;;;;;;8457990;27;27688;-79
2022/11/17 02:33:33;;;;;;;;;;;;;;;;;;8449015;27;27384;-77
2022/11/17 02:37:33;;;;;;;;;;;;;;;;;;8452623;27;27468;-76
2022/11/17 02:41:33;;;;;;;;;;;;;;;;;;8455850;27;27524;-77
2022/11/17 02:45:33;;;;;;;;;;;;;;;;;;8452575;27;27897;-79
2022/11/17 02:49:33;;;;;;;;;;;;;;;;;;8454145;27;28270;-80
2022/11/17 02:53:33;;;;;;;;;;;;;;;;;;8456969;27;27166;-77
2022/11/17 02:57:33;;;;;;;;;;;;;;;;;;8455594;27;28743;-77
2022/11/17 03:01:34;;;;;;;;;;;;;;;;;;8455906;27;27199;-77
2022/11/17 03:05:34;;;;;;;;;;;;;;;;;;8453796;27;28402;-77
2022/11/17 03:09:34;;;;;;;;;;;;;;;;;;8452651;27;27226;-78
2022/11/17 03:13:34;;;;;;;;;;;;;;;;;;8450598;27;27149;-79
2022/11/17 03:17:34;;;;;;;;;;;;;;;;;;8460263;27;27459;-78
2022/11/17 03:21:34;;;;;;;;;;;;;;;;;;8454441;27;28138;-78
2022/11/17 03:25:36;;;;;;;;;;;;;;;;;;8455555;27;28563;-79
2022/11/17 03:29:36;;;;;;;;;;;;;;;;;;8459502;27;27245;-78
2022/11/17 03:33:36;;;;;;;;;;;;;;;;;;8457663;27;27135;-77
2022/11/17 03:37:36;;;;;;;;;;;;;;;;;;8456924;27;27279;-79
2022/11/17 03:41:37;;;;;;;;;;;;;;;;;;8452984;27;27281;-78
2022/11/17 03:45:37;;;;;;;;;;;;;;;;;;8454387;27;27873;-79
2022/11/17 03:49:37;;;;;;;;;;;;;;;;;;8454688;27;27204;-77
2022/11/17 03:53:37;;;;;;;;;;;;;;;;;;8452678;27;27995;-77
2022/11/17 03:57:37;;;;;;;;;;;;;;;;;;8450255;27;28221;-78
2022/11/17 04:01:37;;;;;;;;;;;;;;;;;;8453221;27;27500;-79
2022/11/17 04:05:37;;;;;;;;;;;;;;;;;;8453324;27;27899;-79
2022/11/17 04:09:37;;;;;;;;;;;;;;;;;;8455613;27;27392;-80
2022/11/17 04:17:56;;;;;;;;;;;;;;;;;;8450550;27;27604;-78
2022/11/17 04:21:56;;;;;;;;;;;;;;;;;;8454982;27;27383;-79
2022/11/17 04:30:15;;;;;;;;;;;;;;;;;;8454205;27;27296;-77
2022/11/17 04:34:16;;;;;;;;;;;;;;;;;;8453458;27;27833;-77
2022/11/17 04:38:16;;;;;;;;;;;;;;;;;;8454183;27;27191;-77
2022/11/17 04:42:16;;;;;;;;;;;;;;;;;;8462244;27;27688;-77
2022/11/17 04:46:16;;;;;;;;;;;;;;;;;;8458767;27;27478;-77
2022/11/17 04:50:16;;;;;;;;;;;;;;;;;;8456707;27;28756;-77
2022/11/17 04:54:16;;;;;;;;;;;;;;;;;;8455788;27;27722;-76
2022/11/17 04:58:16;;;;;;;;;;;;;;;;;;8455348;27;27604;-77
2022/11/17 05:02:16;;;;;;;;;;;;;;;;;;8455576;27;27534;-77
2022/11/17 05:06:16;;;;;;;;;;;;;;;;;;8455739;27;28789;-77
2022/11/17 05:13:20;;;;;;;;;;;;;;;;;;8456354;27;27339;-78
2022/11/17 05:14:36;;;;;;;;;;;;;;;;;;8456091;27;27862;-75
2022/11/17 05:18:36;;;;;;;;;;;;;;;;;;8466892;27;28945;-79
2022/11/17 05:26:55;;;;;;;;;;;;;;;;;;8458502;27;27213;-77
2022/11/17 05:30:55;;;;;;;;;;;;;;;;;;8448712;27;28425;-79
2022/11/17 05:34:55;;;;;;;;;;;;;;;;;;8452673;27;27498;-78
2022/11/17 05:38:56;;;;;;;;;;;;;;;;;;8452913;27;27291;-76
2022/11/17 05:42:56;;;;;;;;;;;;;;;;;;8457312;27;27146;-78
2022/11/17 05:46:56;;;;;;;;;;;;;;;;;;8450995;27;28879;-77
2022/11/17 05:50:56;;;;;;;;;;;;;;;;;;8452073;27;27737;-76
2022/11/17 05:54:56;;;;;;;;;;;;;;;;;;8448281;27;27562;-77
2022/11/17 05:58:56;;;;;;;;;;;;;;;;;;8450407;27;27493;-78
2022/11/17 06:02:56;;;;;;;;;;;;;;;;;;8456377;27;30182;-76
2022/11/17 06:06:58;;;;;;;;;;;;;;;;;;8446450;27;27287;-73
2022/11/17 06:10:58;;;;;;;;;;;;;;;;;;8449825;27;28845;-77
2022/11/17 06:14:58;;;;;;;;;;;;;;;;;;8447623;27;28008;-77
2022/11/17 06:18:58;;;;;;;;;;;;;;;;;;8449279;27;27228;-78
2022/11/17 06:22:58;;;;;;;;;;;;;;;;;;8449499;27;27326;-78
2022/11/17 06:26:58;;;;;;;;;;;;;;;;;;8449397;27;27476;-77
2022/11/17 06:31:01;;;;;;;;;;;;;;;;;;8455021;27;28483;-78
2022/11/17 06:35:01;;;;;;;;;;;;;;;;;;8454129;27;27407;-74
2022/11/17 06:39:01;;;;;;;;;;;;;;;;;;8444515;27;27365;-76
2022/11/17 06:43:08;;;;;;;;;;;;;;;;;;8452256;27;27255;-76
2022/11/17 06:47:08;;;;;;;;;;;;;;;;;;8444852;27;27705;-79
2022/11/17 06:51:08;;;;;;;;;;;;;;;;;;8449670;27;27793;-78
2022/11/17 06:55:08;;;;;;;;;;;;;;;;;;8453195;27;27237;-79
2022/11/17 06:59:08;;;;;;;;;;;;;;;;;;8451212;27;27337;-79
2022/11/17 07:03:08;;;;;;;;;;;;;;;;;;8444084;27;28750;-77
2022/11/17 07:07:09;;;;;;;;;;;;;;;;;;8451610;27;27243;-78
2022/11/17 07:11:09;;;;;;;;;;;;;;;;;;8454642;27;27180;-77
2022/11/17 07:15:09;;;;;;;;;;;;;;;;;;8447632;27;27156;-78
2022/11/17 07:19:09;;;;;;;;;;;;;;;;;;8449024;27;27243;-77
2022/11/17 07:23:09;;;;;;;;;;;;;;;;;;8446947;27;27132;-78
2022/11/17 07:27:09;;;;;;;;;;;;;;;;;;8448115;27;28704;-77
2022/11/17 07:31:09;;;;;;;;;;;;;;;;;;8447759;27;29105;-79
2022/11/17 07:35:09;;;;;;;;;;;;;;;;;;8448694;27;28520;-77
2022/11/17 07:39:09;;;;;;;;;;;;;;;;;;8447386;27;27392;-78
2022/11/17 07:43:09;;;;;;;;;;;;;;;;;;8454851;27;28120;-78
2022/11/17 07:47:09;;;;;;;;;;;;;;;;;;8454867;27;27641;-77
2022/11/17 07:51:11;;;;;;;;;;;;;;;;;;8452703;27;28473;-81
2022/11/17 07:55:11;;;;;;;;;;;;;;;;;;8452874;27;27622;-77
2022/11/17 07:59:11;;;;;;;;;;;;;;;;;;8438581;27;28193;-76
2022/11/17 08:03:11;;;;;;;;;;;;;;;;;;8443952;27;29623;-77
2022/11/17 08:07:11;;;;;;;;;;;;;;;;;;8448048;27;27353;-78
2022/11/17 08:11:11;;;;;;;;;;;;;;;;;;8447438;27;27840;-79
2022/11/17 08:15:14;;;;;;;;;;;;;;;;;;8448101;27;27254;-77
2022/11/17 08:19:15;;;;;;;;;;;;;;;;;;8449492;27;27783;-76
2022/11/17 08:23:15;;;;;;;;;;;;;;;;;;8445008;27;27307;-77
2022/11/17 08:27:15;;;;;;;;;;;;;;;;;;8448384;27;27638;-77
2022/11/17 08:31:15;;;;;;;;;;;;;;;;;;8445445;27;28340;-78
2022/11/17 08:35:16;;;;;;;;;;;;;;;;;;8444785;27;27666;-77
2022/11/17 08:39:16;;;;;;;;;;;;;;;;;;8450791;27;28654;-77
2022/11/17 08:43:16;;;;;;;;;;;;;;;;;;8446795;27;27426;-77
2022/11/17 08:47:16;;;;;;;;;;;;;;;;;;8444365;27;27222;-75
2022/11/17 08:51:16;;;;;;;;;;;;;;;;;;8446479;27;28856;-77
2022/11/17 08:55:16;;;;;;;;;;;;;;;;;;8442860;27;27550;-79
2022/11/17 08:59:16;;;;;;;;;;;;;;;;;;8453122;27;27519;-77
2022/11/17 09:03:16;;;;;;;;;;;;;;;;;;8447578;27;27846;-78
2022/11/17 09:07:17;;;;;;;;;;;;;;;;;;8451555;27;27459;-75
2022/11/17 09:11:17;;;;;;;;;;;;;;;;;;8448296;27;27104;-80
2022/11/17 09:15:17;;;;;;;;;;;;;;;;;;8447919;27;27760;-76
2022/11/17 09:19:17;;;;;;;;;;;;;;;;;;8454627;27;28767;-76
2022/11/17 09:23:17;;;;;;;;;;;;;;;;;;8450254;27;27589;-77
2022/11/17 09:27:17;;;;;;;;;;;;;;;;;;8450023;27;28583;-78
2022/11/17 09:31:17;;;;;;;;;;;;;;;;;;8452414;27;28134;-78
2022/11/17 09:35:17;;;;;;;;;;;;;;;;;;8463446;27;29050;-78
2022/11/17 09:39:18;;;;;;;;;;;;;;;;;;8456055;27;27374;-75
2022/11/17 09:43:18;;;;;;;;;;;;;;;;;;8450818;27;28011;-77
2022/11/17 09:47:18;;;;;;;;;;;;;;;;;;8446954;27;27304;-77
2022/11/17 09:51:18;;;;;;;;;;;;;;;;;;8446899;27;28076;-78
2022/11/17 09:55:18;;;;;;;;;;;;;;;;;;8449994;27;27361;-78
2022/11/17 09:59:18;;;;;;;;;;;;;;;;;;8447627;27;27480;-79
2022/11/17 10:03:18;;;;;;;;;;;;;;;;;;8446627;27;27423;-78
2022/11/17 10:07:19;;;;;;;;;;;;;;;;;;8457435;27;28706;-77
2022/11/17 10:11:32;;;;;;;;;;;;;;;;;;8452093;27;27175;-77
2022/11/17 10:15:32;;;;;;;;;;;;;;;;;;8448992;27;27595;-74
2022/11/17 10:19:32;;;;;;;;;;;;;;;;;;8450709;27;27420;-78
2022/11/17 10:23:32;;;;;;;;;;;;;;;;;;8443155;27;27099;-76
2022/11/17 10:27:32;;;;;;;;;;;;;;;;;;8445320;27;27356;-77
2022/11/17 10:31:32;;;;;;;;;;;;;;;;;;8447195;27;27756;-78
2022/11/17 10:35:33;;;;;;;;;;;;;;;;;;8441840;27;27366;-77
2022/11/17 10:39:33;;;;;;;;;;;;;;;;;;8447978;27;27972;-77
2022/11/17 10:43:33;;;;;;;;;;;;;;;;;;8447778;27;27340;-77
2022/11/17 10:47:33;;;;;;;;;;;;;;;;;;8448765;27;27154;-78
2022/11/17 10:51:33;;;;;;;;;;;;;;;;;;8447494;27;27417;-76
2022/11/17 10:55:33;;;;;;;;;;;;;;;;;;8440726;27;27586;-77
2022/11/17 10:59:33;;;;;;;;;;;;;;;;;;8442854;27;28090;-77
2022/11/17 11:03:33;;;;;;;;;;;;;;;;;;8444942;27;28572;-77
2022/11/17 11:07:34;;;;;;;;;;;;;;;;;;8449201;27;27690;-78
2022/11/17 11:11:34;;;;;;;;;;;;;;;;;;8447506;27;27335;-77
2022/11/17 11:15:34;;;;;;;;;;;;;;;;;;8450596;27;27573;-80
2022/11/17 11:19:34;;;;;;;;;;;;;;;;;;8448830;27;28234;-77
2022/11/17 11:23:34;;;;;;;;;;;;;;;;;;8448467;27;27307;-77
2022/11/17 11:27:34;;;;;;;;;;;;;;;;;;8449357;27;27435;-77
2022/11/17 11:31:34;;;;;;;;;;;;;;;;;;8443160;27;27837;-78
2022/11/17 11:35:34;;;;;;;;;;;;;;;;;;8445609;27;27214;-79
2022/11/17 11:39:35;;;;;;;;;;;;;;;;;;8444146;27;27182;-78
2022/11/17 11:43:35;;;;;;;;;;;;;;;;;;8447138;27;27301;-79
2022/11/17 11:47:35;;;;;;;;;;;;;;;;;;8440998;27;27848;-77
2022/11/17 11:51:35;;;;;;;;;;;;;;;;;;8443145;27;27195;-76
2022/11/17 11:55:35;;;;;;;;;;;;;;;;;;8446739;27;27997;-78
2022/11/17 11:59:35;;;;;;;;;;;;;;;;;;8447974;27;27483;-78
2022/11/17 12:03:35;;;;;;;;;;;;;;;;;;8448678;27;27358;-77
2022/11/17 12:07:35;;;;;;;;;;;;;;;;;;8450843;27;28582;-78
2022/11/17 12:16:08;;;;;;;;;;;;;;;;;;8458662;27;27967;-77
2022/11/17 12:20:08;;;;;;;;;;;;;;;;;;8448452;27;27378;-78
2022/11/17 12:24:08;;;;;;;;;;;;;;;;;;8446168;27;27366;-77
2022/11/17 12:28:08;;;;;;;;;;;;;;;;;;8453893;27;27904;-75
2022/11/17 12:32:08;;;;;;;;;;;;;;;;;;8448873;27;27316;-77
2022/11/17 12:36:08;;;;;;;;;;;;;;;;;;8443414;27;27381;-78
2022/11/17 12:40:08;;;;;;;;;;;;;;;;;;8454256;27;28704;-78
2022/11/17 12:44:09;;;;;;;;;;;;;;;;;;8450156;27;27435;-80
2022/11/17 12:48:09;;;;;;;;;;;;;;;;;;8445547;27;27378;-79
2022/11/17 12:52:09;;;;;;;;;;;;;;;;;;8450208;27;27326;-79
2022/11/17 12:56:09;;;;;;;;;;;;;;;;;;8453025;27;28638;-76
2022/11/17 13:00:09;;;;;;;;;;;;;;;;;;8450069;27;27656;-79
2022/11/17 13:04:09;;;;;;;;;;;;;;;;;;8449832;27;27597;-75
2022/11/17 13:08:09;;;;;;;;;;;;;;;;;;8452297;27;28158;-76
2022/11/17 13:12:09;;;;;;;;;;;;;;;;;;8450368;27;27615;-79
2022/11/17 13:16:09;;;;;;;;;;;;;;;;;;8451826;27;28975;-77
2022/11/17 13:20:10;;;;;;;;;;;;;;;;;;8450600;27;27383;-78
2022/11/17 13:24:10;;;;;;;;;;;;;;;;;;8444399;27;27185;-77
2022/11/17 13:28:10;;;;;;;;;;;;;;;;;;8449690;27;27184;-76
2022/11/17 13:32:11;;;;;;;;;;;;;;;;;;8452722;27;27906;-78
2022/11/17 13:36:11;;;;;;;;;;;;;;;;;;8446570;27;27897;-78
2022/11/17 13:40:11;;;;;;;;;;;;;;;;;;8452034;27;27145;-78
2022/11/17 13:44:11;;;;;;;;;;;;;;;;;;8452698;27;27384;-79
2022/11/17 13:48:11;;;;;;;;;;;;;;;;;;8452076;27;28859;-75
2022/11/17 13:52:11;;;;;;;;;;;;;;;;;;8453292;27;27206;-78
2022/11/17 13:56:11;;;;;;;;;;;;;;;;;;8447885;27;27903;-78
2022/11/17 14:00:11;;;;;;;;;;;;;;;;;;8451412;27;27534;-76
2022/11/17 14:04:12;;;;;;;;;;;;;;;;;;8451145;27;28372;-76
2022/11/17 14:08:12;;;;;;;;;;;;;;;;;;8447380;27;28756;-76
2022/11/17 14:12:12;;;;;;;;;;;;;;;;;;8442039;27;28771;-77
2022/11/17 14:16:13;;;;;;;;;;;;;;;;;;8448104;27;27259;-76
2022/11/17 14:20:13;;;;;;;;;;;;;;;;;;8447410;27;27766;-76
2022/11/17 14:24:13;;;;;;;;;;;;;;;;;;8450437;27;28398;-76
2022/11/17 14:28:13;;;;;;;;;;;;;;;;;;8452176;27;27494;-79
2022/11/17 14:32:13;;;;;;;;;;;;;;;;;;8450029;27;28161;-79
2022/11/17 14:36:13;;;;;;;;;;;;;;;;;;8443314;27;27584;-79
2022/11/17 14:40:13;;;;;;;;;;;;;;;;;;8445222;27;28593;-79
2022/11/17 14:44:13;;;;;;;;;;;;;;;;;;8449680;27;28429;-75
2022/11/17 14:48:15;;;;;;;;;;;;;;;;;;8445374;27;27896;-76
2022/11/17 14:52:15;;;;;;;;;;;;;;;;;;8448862;27;28674;-78
2022/11/17 14:56:16;;;;;;;;;;;;;;;;;;8453535;27;28511;-78
2022/11/17 15:00:16;;;;;;;;;;;;;;;;;;8450300;27;27275;-76
2022/11/17 15:04:17;;;;;;;;;;;;;;;;;;8449714;27;27874;-77
2022/11/17 15:08:17;;;;;;;;;;;;;;;;;;8448201;27;27368;-77
2022/11/17 15:12:17;;;;;;;;;;;;;;;;;;8447527;27;27377;-77
2022/11/17 15:16:17;;;;;;;;;;;;;;;;;;8444309;27;27515;-79
2022/11/17 15:20:17;;;;;;;;;;;;;;;;;;8450845;27;27230;-77
2022/11/17 15:24:17;;;;;;;;;;;;;;;;;;8445013;27;28180;-77
2022/11/17 15:28:17;;;;;;;;;;;;;;;;;;8450645;27;28169;-76
2022/11/17 15:32:17;;;;;;;;;;;;;;;;;;8449701;27;28570;-78
2022/11/17 15:36:17;;;;;;;;;;;;;;;;;;8450850;27;28351;-79
2022/11/17 15:40:18;;;;;;;;;;;;;;;;;;8448692;27;27187;-77
2022/11/17 15:44:18;;;;;;;;;;;;;;;;;;8440432;27;27247;-76
2022/11/17 15:48:18;;;;;;;;;;;;;;;;;;8442987;27;27422;-78
2022/11/17 15:52:18;;;;;;;;;;;;;;;;;;8442609;27;27128;-76
2022/11/17 15:56:18;;;;;;;;;;;;;;;;;;8447305;27;27303;-76
2022/11/17 16:00:18;;;;;;;;;;;;;;;;;;8438845;27;28074;-77
2022/11/17 16:04:18;;;;;;;;;;;;;;;;;;8447020;27;27418;-76
2022/11/17 16:08:18;;;;;;;;;;;;;;;;;;8447739;27;27165;-76
2022/11/17 16:12:18;;;;;;;;;;;;;;;;;;8448524;27;28238;-75
2022/11/17 16:16:19;;;;;;;;;;;;;;;;;;8457040;27;27401;-77
2022/11/17 16:20:19;;;;;;;;;;;;;;;;;;8448731;27;27445;-77
2022/11/17 16:24:19;;;;;;;;;;;;;;;;;;8449038;27;27805;-77
2022/11/17 16:28:19;;;;;;;;;;;;;;;;;;8449837;27;27905;-76
2022/11/17 16:32:19;;;;;;;;;;;;;;;;;;8449635;27;27945;-77
2022/11/17 16:36:19;;;;;;;;;;;;;;;;;;8444878;27;28011;-76
2022/11/17 16:40:19;;;;;;;;;;;;;;;;;;8454468;27;27170;-78
2022/11/17 16:44:19;;;;;;;;;;;;;;;;;;8450846;27;27191;-78
2022/11/17 16:51:19;;;;;;;;;;;;;;;;;;8465858;27;27860;-78
2022/11/17 16:55:19;;;;;;;;;;;;;;;;;;8440649;27;27210;-79
2022/11/17 16:59:19;;;;;;;;;;;;;;;;;;8437977;27;28113;-77
2022/11/17 17:03:20;;;;;;;;;;;;;;;;;;8446662;27;27782;-78
2022/11/17 17:07:20;;;;;;;;;;;;;;;;;;8440273;27;27411;-78
2022/11/17 17:11:20;;;;;;;;;;;;;;;;;;8441269;27;27383;-78
2022/11/17 17:15:20;;;;;;;;;;;;;;;;;;8450441;27;27586;-79
2022/11/17 17:19:20;;;;;;;;;;;;;;;;;;8445945;27;29894;-79
2022/11/17 17:23:20;;;;;;;;;;;;;;;;;;8442296;27;27711;-78
2022/11/17 17:27:20;;;;;;;;;;;;;;;;;;8446392;27;27759;-77
2022/11/17 17:31:20;;;;;;;;;;;;;;;;;;8439166;27;27221;-77
2022/11/17 17:35:20;;;;;;;;;;;;;;;;;;8439619;27;28081;-78
2022/11/17 17:39:20;;;;;;;;;;;;;;;;;;8439866;27;27530;-78
2022/11/17 17:43:21;;;;;;;;;;;;;;;;;;8445735;27;27762;-78
2022/11/17 17:47:22;;;;;;;;;;;;;;;;;;8441555;27;27311;-79
2022/11/17 17:51:25;;;;;;;;;;;;;;;;;;8438519;27;27539;-78
2022/11/17 17:55:25;;;;;;;;;;;;;;;;;;8442707;27;27434;-76
2022/11/17 17:59:25;;;;;;;;;;;;;;;;;;8439572;27;27515;-77
2022/11/17 18:03:25;;;;;;;;;;;;;;;;;;8417469;27;27826;-77
2022/11/17 18:07:25;;;;;;;;;;;;;;;;;;8418301;27;27183;-77
2022/11/17 18:11:25;;;;;;;;;;;;;;;;;;8416828;27;27752;-77
2022/11/17 18:15:25;;;;;;;;;;;;;;;;;;8422685;27;27457;-75
2022/11/17 18:19:25;;;;;;;;;;;;;;;;;;8421287;27;27131;-78
2022/11/17 18:23:26;;;;;;;;;;;;;;;;;;8423016;27;27148;-78
2022/11/17 18:27:26;;;;;;;;;;;;;;;;;;8429590;27;29009;-75
2022/11/17 18:31:26;;;;;;;;;;;;;;;;;;8421967;27;27353;-78
2022/11/17 18:35:26;;;;;;;;;;;;;;;;;;8414069;27;27621;-77
2022/11/17 18:39:27;;;;;;;;;;;;;;;;;;8422234;27;27956;-78
2022/11/17 18:44:21;;;;;;;;;;;;;;;;;;8430316;27;28474;-77
2022/11/17 18:48:21;;;;;;;;;;;;;;;;;;8418965;27;27465;-77
2022/11/17 18:52:21;;;;;;;;;;;;;;;;;;8410003;27;27443;-78
2022/11/17 18:56:21;;;;;;;;;;;;;;;;;;8408097;27;27476;-79
2022/11/17 19:00:22;;;;;;;;;;;;;;;;;;8407275;27;27627;-79
2022/11/17 19:04:22;;;;;;;;;;;;;;;;;;8408633;27;27166;-78
2022/11/17 19:08:22;;;;;;;;;;;;;;;;;;8416355;27;27303;-78
2022/11/17 19:12:22;;;;;;;;;;;;;;;;;;8406326;27;28630;-78
2022/11/17 19:16:22;;;;;;;;;;;;;;;;;;8406146;27;27344;-78
2022/11/17 19:20:24;;;;;;;;;;;;;;;;;;8405811;27;27626;-78
2022/11/17 19:24:24;;;;;;;;;;;;;;;;;;8407036;27;27349;-77
2022/11/17 19:28:24;;;;;;;;;;;;;;;;;;8408141;27;27337;-76
2022/11/17 19:32:24;;;;;;;;;;;;;;;;;;8414738;27;28635;-75
2022/11/17 19:36:24;;;;;;;;;;;;;;;;;;8398044;27;27412;-76
2022/11/17 19:40:25;;;;;;;;;;;;;;;;;;8404688;27;27326;-76
2022/11/17 19:44:25;;;;;;;;;;;;;;;;;;8436718;27;28151;-76
2022/11/17 19:48:25;;;;;;;;;;;;;;;;;;8434773;27;27382;-75
2022/11/17 19:52:26;;;;;;;;;;;;;;;;;;8436152;27;28509;-75
2022/11/17 19:56:26;;;;;;;;;;;;;;;;;;8416982;27;28218;-75
2022/11/17 20:00:26;;;;;;;;;;;;;;;;;;8412375;27;27513;-76
2022/11/17 20:04:26;;;;;;;;;;;;;;;;;;8414630;27;28706;-77
2022/11/17 20:08:26;;;;;;;;;;;;;;;;;;8417213;27;28750;-75
2022/11/17 20:12:26;;;;;;;;;;;;;;;;;;8412396;27;27546;-76
2022/11/17 20:16:26;;;;;;;;;;;;;;;;;;8421101;27;27363;-75
2022/11/17 20:20:26;;;;;;;;;;;;;;;;;;8417434;27;28217;-75
2022/11/17 20:24:27;;;;;;;;;;;;;;;;;;8427136;27;28622;-75
2022/11/17 20:28:27;;;;;;;;;;;;;;;;;;8420040;27;28654;-75
2022/11/17 20:32:27;;;;;;;;;;;;;;;;;;8416099;27;27434;-76
2022/11/17 20:36:27;;;;;;;;;;;;;;;;;;8423172;27;27999;-75
2022/11/17 20:40:27;;;;;;;;;;;;;;;;;;8417875;27;28312;-75
2022/11/17 20:44:27;;;;;;;;;;;;;;;;;;8419598;27;28029;-76
2022/11/17 20:52:04;;;;;;;;;;;;;;;;;;8434842;27;27867;-79
2022/11/17 20:56:05;;;;;;;;;;;;;;;;;;8437713;27;27667;-78
2022/11/17 21:00:05;;;;;;;;;;;;;;;;;;8442222;27;27051;-77
2022/11/17 21:04:05;;;;;;;;;;;;;;;;;;8438034;27;27945;-78
2022/11/17 21:08:05;;;;;;;;;;;;;;;;;;8435761;27;27693;-78
2022/11/17 21:12:05;;;;;;;;;;;;;;;;;;8437849;27;27281;-77
2022/11/17 21:16:06;;;;;;;;;;;;;;;;;;8435610;27;27205;-78
2022/11/17 21:20:06;;;;;;;;;;;;;;;;;;8442076;27;28555;-76
2022/11/17 21:24:06;;;;;;;;;;;;;;;;;;8438352;27;28376;-77
2022/11/17 21:28:06;;;;;;;;;;;;;;;;;;8443482;27;27460;-78
2022/11/17 21:32:06;;;;;;;;;;;;;;;;;;8443730;27;28536;-77
2022/11/17 21:36:07;;;;;;;;;;;;;;;;;;8437117;27;28439;-78
2022/11/17 21:40:07;;;;;;;;;;;;;;;;;;8441888;27;28269;-77
2022/11/17 21:44:07;;;;;;;;;;;;;;;;;;8445464;27;27773;-77
2022/11/17 21:48:07;;;;;;;;;;;;;;;;;;8437717;27;27442;-77
2022/11/17 21:52:07;;;;;;;;;;;;;;;;;;8469841;27;28349;-77
2022/11/17 21:56:07;;;;;;;;;;;;;;;;;;8472827;27;27177;-78
2022/11/17 22:00:07;;;;;;;;;;;;;;;;;;8460943;27;27819;-78
2022/11/17 22:04:08;;;;;;;;;;;;;;;;;;8444670;27;27265;-76
2022/11/17 22:08:08;;;;;;;;;;;;;;;;;;8444773;27;27298;-77
2022/11/17 22:12:08;;;;;;;;;;;;;;;;;;8454464;27;28758;-78
2022/11/17 22:16:08;;;;;;;;;;;;;;;;;;8451519;27;27477;-78
2022/11/17 22:20:08;;;;;;;;;;;;;;;;;;8448602;27;27792;-77
2022/11/17 22:24:08;;;;;;;;;;;;;;;;;;8442539;27;29518;-78
2022/11/17 22:28:09;;;;;;;;;;;;;;;;;;8443876;27;28310;-78
2022/11/17 22:32:09;;;;;;;;;;;;;;;;;;8450255;27;27165;-78
2022/11/17 22:36:09;;;;;;;;;;;;;;;;;;8450182;27;28589;-78
2022/11/17 22:40:09;;;;;;;;;;;;;;;;;;8447256;27;28074;-78
2022/11/17 22:44:09;;;;;;;;;;;;;;;;;;8444604;27;27342;-77
2022/11/17 22:48:09;;;;;;;;;;;;;;;;;;8441922;27;29141;-78
2022/11/17 22:52:09;;;;;;;;;;;;;;;;;;8450351;27;28642;-78
2022/11/17 22:56:09;;;;;;;;;;;;;;;;;;8452499;27;28184;-78
2022/11/17 23:00:09;;;;;;;;;;;;;;;;;;8445071;27;28228;-78
2022/11/17 23:04:09;;;;;;;;;;;;;;;;;;8443118;27;28118;-78
2022/11/17 23:08:09;;;;;;;;;;;;;;;;;;8451101;27;27205;-79
2022/11/17 23:12:09;;;;;;;;;;;;;;;;;;8441455;27;27758;-78
2022/11/17 23:16:10;;;;;;;;;;;;;;;;;;8445731;27;27480;-79
2022/11/17 23:20:10;;;;;;;;;;;;;;;;;;8446658;27;27934;-78
2022/11/17 23:24:11;;;;;;;;;;;;;;;;;;8447480;27;27562;-78
2022/11/17 23:28:11;;;;;;;;;;;;;;;;;;8446052;27;29553;-78
2022/11/17 23:32:11;;;;;;;;;;;;;;;;;;8443845;27;27680;-77
2022/11/17 23:36:12;;;;;;;;;;;;;;;;;;8448087;27;27630;-78
2022/11/17 23:40:12;;;;;;;;;;;;;;;;;;8439760;27;27556;-77
2022/11/17 23:44:12;;;;;;;;;;;;;;;;;;8447515;27;27266;-77
2022/11/17 23:48:12;;;;;;;;;;;;;;;;;;8445340;27;27872;-76
2022/11/17 23:52:12;;;;;;;;;;;;;;;;;;8447345;27;28721;-78
2022/11/17 23:56:12;;;;;;;;;;;;;;;;;;8444194;27;28695;-77
